createdAt,value
2023-04-02T00:01:04.173Z,6.75
2023-04-02T00:03:43.714Z,6.75
2023-04-02T00:06:25.664Z,6.69
2023-04-02T00:08:56.338Z,6.75
2023-04-02T00:11:37.461Z,6.69
2023-04-02T00:14:13.240Z,6.69
2023-04-02T00:16:40.059Z,6.69
2023-04-02T00:19:15.353Z,6.69
2023-04-02T00:21:45.973Z,6.56
2023-04-02T00:24:21.906Z,6.63
2023-04-02T00:26:50.991Z,6.63
2023-04-02T00:29:19.339Z,6.63
2023-04-02T00:31:49.788Z,6.56
2023-04-02T00:34:37.937Z,6.56
2023-04-02T00:37:05.337Z,6.56
2023-04-02T00:39:42.091Z,6.56
2023-04-02T00:42:12.993Z,6.56
2023-04-02T00:44:44.903Z,6.63
2023-04-02T00:47:34.253Z,6.56
2023-04-02T00:50:19.309Z,6.63
2023-04-02T00:52:51.960Z,6.50
2023-04-02T00:55:25.731Z,6.50
2023-04-02T00:57:57.147Z,6.44
2023-04-02T01:00:33.402Z,6.50
2023-04-02T01:03:18.118Z,6.44
2023-04-02T01:05:50.210Z,6.50
2023-04-02T01:08:42.132Z,6.44
2023-04-02T01:11:28.395Z,6.44
2023-04-02T01:13:59.754Z,6.44
2023-04-02T01:16:27.225Z,6.38
2023-04-02T01:19:06.286Z,6.38
2023-04-02T01:21:54.244Z,6.31
2023-04-02T01:24:26.559Z,6.31
2023-04-02T01:26:59.239Z,6.38
2023-04-02T01:29:33.632Z,6.38
2023-04-02T01:32:09.829Z,6.25
2023-04-02T01:34:37.903Z,6.31
2023-04-02T01:37:36.734Z,6.31
2023-04-02T01:40:18.596Z,6.31
2023-04-02T01:43:08.815Z,6.25
2023-04-02T01:45:36.148Z,6.31
2023-04-02T01:48:17.390Z,6.25
2023-04-02T01:50:47.085Z,6.25
2023-04-02T01:53:17.480Z,6.25
2023-04-02T01:55:54.602Z,6.19
2023-04-02T01:58:28.329Z,6.19
2023-04-02T02:01:04.042Z,6.19
2023-04-02T02:03:31.247Z,6.19
2023-04-02T02:05:59.285Z,6.13
2023-04-02T02:08:37.678Z,6.13
2023-04-02T02:11:04.988Z,6.13
2023-04-02T02:13:32.188Z,6.13
2023-04-02T02:16:00.414Z,6.06
2023-04-02T02:18:28.882Z,6.06
2023-04-02T02:20:58.636Z,6.06
2023-04-02T02:23:28.704Z,6.06
2023-04-02T02:25:56.406Z,6.00
2023-04-02T02:28:31.509Z,5.88
2023-04-02T02:31:17.751Z,5.81
2023-04-02T02:33:53.105Z,5.75
2023-04-02T02:36:28.012Z,5.75
2023-04-02T02:39:16.938Z,5.63
2023-04-02T02:42:14.956Z,5.50
2023-04-02T02:44:48.138Z,5.56
2023-04-02T02:47:28.773Z,5.56
2023-04-02T02:50:00.436Z,5.56
2023-04-02T02:52:31.682Z,5.56
2023-04-02T02:55:04.585Z,5.56
2023-04-02T02:57:41.511Z,5.50
2023-04-02T03:00:11.623Z,5.44
2023-04-02T03:02:41.452Z,5.50
2023-04-02T03:05:10.085Z,5.50
2023-04-02T03:07:38.264Z,5.44
2023-04-02T03:10:16.666Z,5.44
2023-04-02T03:13:21.879Z,5.38
2023-04-02T03:15:59.402Z,5.38
2023-04-02T03:18:36.956Z,5.44
2023-04-02T03:21:18.760Z,5.38
2023-04-02T03:24:03.357Z,5.38
2023-04-02T03:26:44.124Z,5.31
2023-04-02T03:29:22.224Z,5.31
2023-04-02T03:31:57.920Z,5.25
2023-04-02T03:34:40.769Z,5.25
2023-04-02T03:37:42.106Z,5.31
2023-04-02T03:40:18.248Z,5.25
2023-04-02T03:42:52.597Z,5.25
2023-04-02T03:45:24.786Z,5.19
2023-04-02T03:48:09.943Z,5.19
2023-04-02T03:50:57.976Z,5.19
2023-04-02T03:53:28.077Z,5.19
2023-04-02T03:55:56.750Z,5.19
2023-04-02T03:58:40.071Z,5.19
2023-04-02T04:01:23.920Z,5.19
2023-04-02T04:03:55.237Z,5.13
2023-04-02T04:06:29.942Z,5.13
2023-04-02T04:09:05.211Z,5.13
2023-04-02T04:11:36.230Z,5.19
2023-04-02T04:14:27.589Z,5.13
2023-04-02T04:17:13.869Z,5.13
2023-04-02T04:20:22.840Z,5.13
2023-04-02T04:22:55.692Z,5.00
2023-04-02T04:25:30.516Z,5.00
2023-04-02T04:28:25.173Z,4.94
2023-04-02T04:31:00.380Z,4.94
2023-04-02T04:33:40.007Z,4.94
2023-04-02T04:36:28.736Z,4.81
2023-04-02T04:39:00.537Z,4.75
2023-04-02T04:41:32.442Z,4.75
2023-04-02T04:44:14.759Z,4.69
2023-04-02T04:46:52.542Z,4.63
2023-04-02T04:49:32.693Z,4.63
2023-04-02T04:52:15.997Z,4.63
2023-04-02T04:54:42.901Z,4.63
2023-04-02T04:57:22.094Z,4.63
2023-04-02T04:59:58.764Z,4.63
2023-04-02T05:02:37.995Z,4.63
2023-04-02T05:05:15.916Z,4.63
2023-04-02T05:07:52.957Z,4.50
2023-04-02T05:10:24.874Z,4.38
2023-04-02T05:13:06.508Z,4.25
2023-04-02T05:15:40.078Z,4.19
2023-04-02T05:18:28.178Z,4.06
2023-04-02T05:21:08.147Z,4.00
2023-04-02T05:23:48.830Z,3.94
2023-04-02T05:26:23.774Z,3.88
2023-04-02T05:29:08.744Z,3.75
2023-04-02T05:32:00.260Z,3.75
2023-04-02T05:34:32.623Z,3.75
2023-04-02T05:36:59.510Z,3.69
2023-04-02T05:39:27.738Z,3.63
2023-04-02T05:42:04.328Z,3.63
2023-04-02T05:44:40.828Z,3.50
2023-04-02T05:47:14.936Z,3.50
2023-04-02T05:49:49.444Z,3.44
2023-04-02T05:52:23.503Z,3.38
2023-04-02T05:55:15.637Z,3.44
2023-04-02T05:58:13.307Z,3.38
2023-04-02T06:00:39.236Z,3.31
2023-04-02T06:03:20.222Z,3.38
2023-04-02T06:05:46.974Z,3.25
2023-04-02T06:08:24.197Z,3.25
2023-04-02T06:10:59.971Z,3.25
2023-04-02T06:13:28.377Z,3.25
2023-04-02T06:15:54.986Z,3.25
2023-04-02T06:18:28.281Z,3.25
2023-04-02T06:20:56.282Z,3.31
2023-04-02T06:23:33.267Z,3.31
2023-04-02T06:26:18.008Z,3.25
2023-04-02T06:28:49.814Z,3.38
2023-04-02T06:31:25.978Z,3.31
2023-04-02T06:33:54.999Z,3.38
2023-04-02T06:36:34.295Z,3.38
2023-04-02T06:39:08.666Z,3.44
2023-04-02T06:41:35.544Z,3.44
2023-04-02T06:44:24.398Z,3.50
2023-04-02T06:46:57.443Z,3.50
2023-04-02T06:49:34.229Z,3.50
2023-04-02T06:52:05.352Z,3.50
2023-04-02T06:54:32.077Z,3.56
2023-04-02T06:56:58.834Z,3.56
2023-04-02T06:59:26.074Z,3.56
2023-04-02T07:02:11.606Z,3.69
2023-04-02T07:04:38.531Z,3.69
2023-04-02T07:07:05.227Z,3.63
2023-04-02T07:09:32.825Z,3.75
2023-04-02T07:11:59.431Z,3.75
2023-04-02T07:14:26.105Z,3.81
2023-04-02T07:16:53.034Z,3.75
2023-04-02T07:19:23.999Z,3.94
2023-04-02T07:21:50.974Z,3.88
2023-04-02T07:24:17.676Z,3.81
2023-04-02T07:26:44.350Z,3.88
2023-04-02T07:29:17.513Z,3.75
2023-04-02T07:31:44.185Z,3.75
2023-04-02T07:34:11.574Z,3.69
2023-04-02T07:36:38.204Z,3.69
2023-04-02T07:39:05.144Z,3.75
2023-04-02T07:41:31.791Z,3.75
2023-04-02T07:43:58.419Z,3.81
2023-04-02T07:46:25.865Z,3.81
2023-04-02T07:48:52.652Z,3.88
2023-04-02T07:51:22.861Z,3.94
2023-04-02T07:53:51.049Z,3.94
2023-04-02T07:56:19.780Z,3.94
2023-04-02T07:58:47.046Z,3.88
2023-04-02T08:01:24.390Z,3.88
2023-04-02T08:03:54.167Z,3.88
2023-04-02T08:06:22.918Z,3.88
2023-04-02T08:08:50.491Z,3.94
2023-04-02T08:11:17.330Z,3.94
2023-04-02T08:13:43.948Z,4.00
2023-04-02T08:16:10.793Z,4.06
2023-04-02T08:18:37.622Z,4.13
2023-04-02T08:21:08.683Z,4.13
2023-04-02T08:23:35.857Z,4.13
2023-04-02T08:26:03.159Z,4.06
2023-04-02T08:28:29.823Z,4.13
2023-04-02T08:30:56.515Z,4.06
2023-04-02T08:33:23.189Z,4.06
2023-04-02T08:35:50.058Z,4.13
2023-04-02T08:38:19.842Z,4.13
2023-04-02T08:40:50.973Z,4.25
2023-04-02T08:43:40.704Z,4.25
2023-04-02T08:46:24.661Z,4.44
2023-04-02T08:48:57.046Z,4.31
2023-04-02T08:51:31.456Z,4.38
2023-04-02T08:54:17.516Z,4.44
2023-04-02T08:56:52.362Z,4.50
2023-04-02T08:59:54.939Z,4.44
2023-04-02T09:02:39.462Z,4.31
2023-04-02T09:05:15.548Z,4.44
2023-04-02T09:07:42.474Z,4.44
2023-04-02T09:10:19.583Z,4.38
2023-04-02T09:12:52.731Z,4.38
2023-04-02T09:15:30.906Z,4.38
2023-04-02T09:18:06.853Z,4.44
2023-04-02T09:20:33.535Z,4.69
2023-04-02T09:23:00.197Z,4.75
2023-04-02T09:25:32.375Z,4.88
2023-04-02T09:28:02.643Z,5.13
2023-04-02T09:30:32.261Z,5.13
2023-04-02T09:33:07.541Z,5.06
2023-04-02T09:35:55.057Z,5.25
2023-04-02T09:38:35.370Z,5.44
2023-04-02T09:41:18.378Z,5.63
2023-04-02T09:43:45.601Z,5.56
2023-04-02T09:46:24.295Z,5.94
2023-04-02T09:48:55.759Z,6.63
2023-04-02T09:51:26.776Z,7.25
2023-04-02T09:54:02.945Z,8.44
2023-04-02T09:56:41.038Z,9.38
2023-04-02T09:59:22.119Z,10.06
2023-04-02T10:01:54.836Z,11.31
2023-04-02T10:04:46.811Z,10.25
2023-04-02T10:07:45.818Z,11.25
2023-04-02T10:10:31.159Z,11.13
2023-04-02T10:13:25.129Z,11.50
2023-04-02T10:15:57.601Z,12.13
2023-04-02T10:18:45.231Z,11.94
2023-04-02T10:21:17.028Z,12.56
2023-04-02T10:23:43.657Z,12.94
2023-04-02T10:26:22.489Z,13.13
2023-04-02T10:29:14.208Z,13.25
2023-04-02T10:31:59.435Z,13.50
2023-04-02T10:34:34.712Z,13.88
2023-04-02T10:37:34.813Z,13.50
2023-04-02T10:40:26.756Z,13.81
2023-04-02T10:43:06.894Z,14.50
2023-04-02T10:45:51.884Z,14.94
2023-04-02T10:48:32.674Z,14.88
2023-04-02T10:51:29.080Z,15.31
2023-04-02T10:54:21.421Z,15.44
2023-04-02T10:56:53.091Z,15.38
2023-04-02T10:59:29.921Z,15.75
2023-04-02T11:02:04.303Z,15.75
2023-04-02T11:04:52.498Z,15.88
2023-04-02T11:07:27.588Z,16.00
2023-04-02T11:09:58.154Z,16.38
2023-04-02T11:12:41.603Z,15.75
2023-04-02T11:15:20.028Z,15.19
2023-04-02T11:17:48.106Z,15.50
2023-04-02T11:20:48.605Z,16.13
2023-04-02T11:23:19.352Z,16.38
2023-04-02T11:25:47.627Z,16.25
2023-04-02T11:28:32.537Z,16.44
2023-04-02T11:31:00.154Z,16.56
2023-04-02T11:33:37.405Z,16.44
2023-04-02T11:36:44.649Z,17.06
2023-04-02T11:39:17.309Z,17.19
2023-04-02T11:42:01.032Z,17.00
2023-04-02T11:44:27.797Z,16.50
2023-04-02T11:47:16.010Z,16.94
2023-04-02T11:49:55.047Z,16.69
2023-04-02T11:52:37.757Z,16.63
2023-04-02T11:55:19.464Z,16.75
2023-04-02T11:57:59.874Z,16.81
2023-04-02T12:00:34.813Z,17.13
2023-04-02T12:03:11.721Z,17.44
2023-04-02T12:05:54.646Z,17.56
2023-04-02T12:08:30.938Z,17.75
2023-04-02T12:11:00.961Z,17.63
2023-04-02T12:13:39.767Z,16.94
2023-04-02T12:16:14.321Z,17.06
2023-04-02T12:18:47.957Z,17.44
2023-04-02T12:21:18.149Z,18.13
2023-04-02T12:23:49.233Z,17.88
2023-04-02T12:26:32.173Z,17.63
2023-04-02T12:29:24.794Z,17.69
2023-04-02T12:31:52.943Z,17.63
2023-04-02T12:34:22.188Z,17.88
2023-04-02T12:37:03.733Z,16.63
2023-04-02T12:39:34.961Z,17.69
2023-04-02T12:42:01.648Z,17.75
2023-04-02T12:44:30.551Z,17.94
2023-04-02T12:46:59.402Z,17.88
2023-04-02T12:49:38.751Z,17.81
2023-04-02T12:52:21.344Z,18.25
2023-04-02T12:55:00.749Z,17.94
2023-04-02T12:57:27.531Z,17.94
2023-04-02T13:00:00.598Z,17.50
2023-04-02T13:02:33.313Z,17.69
2023-04-02T13:05:01.663Z,17.81
2023-04-02T13:07:31.883Z,17.75
2023-04-02T13:10:06.296Z,17.50
2023-04-02T13:12:38.979Z,17.56
2023-04-02T13:15:22.716Z,16.75
2023-04-02T13:18:07.471Z,17.38
2023-04-02T13:20:40.634Z,17.13
2023-04-02T13:23:28.874Z,17.38
2023-04-02T13:25:58.295Z,17.25
2023-04-02T13:28:25.067Z,17.75
2023-04-02T13:30:51.668Z,17.88
2023-04-02T13:33:18.410Z,18.00
2023-04-02T13:35:45.355Z,18.31
2023-04-02T13:38:12.200Z,18.00
2023-04-02T13:40:39.172Z,18.06
2023-04-02T13:43:07.999Z,18.44
2023-04-02T13:45:38.990Z,18.00
2023-04-02T13:48:06.527Z,18.44
2023-04-02T13:50:35.201Z,18.00
2023-04-02T13:53:10.269Z,18.44
2023-04-02T13:55:42.564Z,18.25
2023-04-02T13:58:10.689Z,18.25
2023-04-02T14:00:37.882Z,18.00
2023-04-02T14:03:11.342Z,17.88
2023-04-02T14:05:58.057Z,18.00
2023-04-02T14:08:49.764Z,17.13
2023-04-02T14:11:19.167Z,17.25
2023-04-02T14:13:57.603Z,17.19
2023-04-02T14:16:28.089Z,17.63
2023-04-02T14:19:09.947Z,18.13
2023-04-02T14:21:42.371Z,17.81
2023-04-02T14:24:08.977Z,17.88
2023-04-02T14:27:00.373Z,17.50
2023-04-02T14:29:37.451Z,17.25
2023-04-02T14:32:16.071Z,17.88
2023-04-02T14:35:09.629Z,17.31
2023-04-02T14:37:51.417Z,17.06
2023-04-02T14:40:32.661Z,17.63
2023-04-02T14:43:17.243Z,17.94
2023-04-02T14:45:58.731Z,17.75
2023-04-02T14:48:54.560Z,17.69
2023-04-02T14:51:38.167Z,17.63
2023-04-02T14:54:21.252Z,17.44
2023-04-02T14:56:59.165Z,17.63
2023-04-02T14:59:35.935Z,17.56
2023-04-02T15:02:13.358Z,17.63
2023-04-02T15:04:51.871Z,17.88
2023-04-02T15:07:23.977Z,18.19
2023-04-02T15:10:06.182Z,17.94
2023-04-02T15:12:37.852Z,17.19
2023-04-02T15:15:09.821Z,17.06
2023-04-02T15:17:36.434Z,17.13
2023-04-02T15:20:14.893Z,16.94
2023-04-02T15:22:47.664Z,16.75
2023-04-02T15:25:45.522Z,16.69
2023-04-02T15:28:31.061Z,16.44
2023-04-02T15:31:05.966Z,15.94
2023-04-02T15:33:42.182Z,15.94
2023-04-02T15:36:17.695Z,15.81
2023-04-02T15:38:49.124Z,15.13
2023-04-02T15:41:38.395Z,14.81
2023-04-02T15:44:16.408Z,15.13
2023-04-02T15:47:03.168Z,15.44
2023-04-02T15:49:48.821Z,15.25
2023-04-02T15:52:33.300Z,15.44
2023-04-02T15:55:22.794Z,15.13
2023-04-02T15:58:19.687Z,15.00
2023-04-02T16:01:20.805Z,14.75
2023-04-02T16:04:12.232Z,14.81
2023-04-02T16:07:12.356Z,14.19
2023-04-02T16:09:55.002Z,13.81
2023-04-02T16:12:21.776Z,13.94
2023-04-02T16:14:49.590Z,13.81
2023-04-02T16:17:27.502Z,13.13
2023-04-02T16:20:24.717Z,13.13
2023-04-02T16:23:07.063Z,12.94
2023-04-02T16:25:53.638Z,12.88
2023-04-02T16:28:51.323Z,12.75
2023-04-02T16:31:38.232Z,12.69
2023-04-02T16:34:31.030Z,12.25
2023-04-02T16:37:05.065Z,12.25
2023-04-02T16:39:46.901Z,12.19
2023-04-02T16:42:29.496Z,12.13
2023-04-02T16:45:25.840Z,12.00
2023-04-02T16:47:58.290Z,12.19
2023-04-02T16:51:12.681Z,12.06
2023-04-02T16:54:02.098Z,11.81
2023-04-02T16:57:08.185Z,11.63
2023-04-02T16:59:42.463Z,11.50
2023-04-02T17:02:18.494Z,11.69
2023-04-02T17:04:54.021Z,11.63
2023-04-02T17:07:46.876Z,11.38
2023-04-02T17:10:36.769Z,11.25
2023-04-02T17:13:15.155Z,11.19
2023-04-02T17:15:50.869Z,11.19
2023-04-02T17:18:24.558Z,11.19
2023-04-02T17:20:51.594Z,11.13
2023-04-02T17:23:20.305Z,11.19
2023-04-02T17:25:57.145Z,10.88
2023-04-02T17:28:36.594Z,11.00
2023-04-02T17:31:20.607Z,10.81
2023-04-02T17:33:48.249Z,10.88
2023-04-02T17:36:45.582Z,10.88
2023-04-02T17:39:35.934Z,10.75
2023-04-02T17:42:31.897Z,10.69
2023-04-02T17:44:58.701Z,10.31
2023-04-02T17:47:51.551Z,10.50
2023-04-02T17:50:52.089Z,10.44
2023-04-02T17:53:36.857Z,10.25
2023-04-02T17:56:28.381Z,10.25
2023-04-02T17:59:10.051Z,10.06
2023-04-02T18:01:46.864Z,10.00
2023-04-02T18:04:51.974Z,10.00
2023-04-02T18:07:39.884Z,9.88
2023-04-02T18:10:27.380Z,9.88
2023-04-02T18:13:06.017Z,9.75
2023-04-02T18:15:45.723Z,9.81
2023-04-02T18:18:18.262Z,9.63
2023-04-02T18:21:23.092Z,9.50
2023-04-02T18:24:09.968Z,9.44
2023-04-02T18:26:48.868Z,9.38
2023-04-02T18:29:51.213Z,9.31
2023-04-02T18:32:36.000Z,9.44
2023-04-02T18:35:16.930Z,9.44
2023-04-02T18:38:01.904Z,9.25
2023-04-02T18:40:50.421Z,9.19
2023-04-02T18:43:49.686Z,9.38
2023-04-02T18:46:22.430Z,9.00
2023-04-02T18:48:58.833Z,9.00
2023-04-02T18:51:28.626Z,8.88
2023-04-02T18:54:21.217Z,8.81
2023-04-02T18:56:48.072Z,8.81
2023-04-02T18:59:47.609Z,8.75
2023-04-02T19:02:29.490Z,8.63
2023-04-02T19:05:11.356Z,8.50
2023-04-02T19:07:43.183Z,8.56
2023-04-02T19:10:29.509Z,8.56
2023-04-02T19:12:56.359Z,8.56
2023-04-02T19:15:36.609Z,8.50
2023-04-02T19:18:33.567Z,8.50
2023-04-02T19:21:21.526Z,8.44
2023-04-02T19:24:16.472Z,8.38
2023-04-02T19:27:23.073Z,8.25
2023-04-02T19:30:05.810Z,8.38
2023-04-02T19:32:56.383Z,8.25
2023-04-02T19:35:43.183Z,8.06
2023-04-02T19:38:18.613Z,8.06
2023-04-02T19:41:18.113Z,8.06
2023-04-02T19:43:45.528Z,7.88
2023-04-02T19:46:12.315Z,7.94
2023-04-02T19:48:55.578Z,7.94
2023-04-02T19:51:22.423Z,7.88
2023-04-02T19:53:49.114Z,7.94
2023-04-02T19:56:15.791Z,7.69
2023-04-02T19:58:42.593Z,7.69
2023-04-02T20:01:09.437Z,7.69
2023-04-02T20:03:36.196Z,7.69
2023-04-02T20:06:02.973Z,7.56
2023-04-02T20:08:29.904Z,7.56
2023-04-02T20:10:58.694Z,7.44
2023-04-02T20:13:25.966Z,7.38
2023-04-02T20:15:52.704Z,7.25
2023-04-02T20:18:20.513Z,7.19
2023-04-02T20:20:48.682Z,7.13
2023-04-02T20:23:18.869Z,7.13
2023-04-02T20:25:55.159Z,7.13
2023-04-02T20:28:23.935Z,7.06
2023-04-02T20:30:51.622Z,7.06
2023-04-02T20:33:21.238Z,6.88
2023-04-02T20:35:49.621Z,6.94
2023-04-02T20:38:16.529Z,6.81
2023-04-02T20:40:44.492Z,6.81
2023-04-02T20:43:11.124Z,6.75
2023-04-02T20:45:38.009Z,6.75
2023-04-02T20:48:05.108Z,6.69
2023-04-02T20:50:31.997Z,6.63
2023-04-02T20:53:00.213Z,6.69
2023-04-02T20:55:26.905Z,6.56
2023-04-02T20:57:54.027Z,6.44
2023-04-02T21:00:21.123Z,6.50
2023-04-02T21:02:47.804Z,6.44
2023-04-02T21:05:14.501Z,6.38
2023-04-02T21:07:41.096Z,6.38
2023-04-02T21:10:07.982Z,6.31
2023-04-02T21:12:34.605Z,6.25
2023-04-02T21:15:02.678Z,6.25
2023-04-02T21:17:29.929Z,6.25
2023-04-02T21:19:56.567Z,6.19
2023-04-02T21:22:23.280Z,6.06
2023-04-02T21:24:49.872Z,6.00
2023-04-02T21:27:16.767Z,6.00
2023-04-02T21:29:43.401Z,6.00
2023-04-02T21:32:20.728Z,6.00
2023-04-02T21:34:48.214Z,5.88
2023-04-02T21:37:14.839Z,5.88
2023-04-02T21:39:41.485Z,5.81
2023-04-02T21:42:08.153Z,5.81
2023-04-02T21:44:34.771Z,5.75
2023-04-02T21:47:01.400Z,5.75
2023-04-02T21:49:28.246Z,5.69
2023-04-02T21:51:54.859Z,5.63
2023-04-02T21:54:21.722Z,5.63
2023-04-02T21:56:49.023Z,5.56
2023-04-02T21:59:17.221Z,5.50
2023-04-02T22:01:47.150Z,5.44
2023-04-02T22:04:22.922Z,5.44
2023-04-02T22:06:52.130Z,5.44
2023-04-02T22:09:22.353Z,5.50
2023-04-02T22:11:56.704Z,5.38
2023-04-02T22:14:23.366Z,5.31
2023-04-02T22:16:50.009Z,5.25
2023-04-02T22:19:17.517Z,5.19
2023-04-02T22:21:44.972Z,5.19
2023-04-02T22:24:14.870Z,5.19
2023-04-02T22:26:42.210Z,5.19
2023-04-02T22:29:09.268Z,5.06
2023-04-02T22:31:36.708Z,5.00
2023-04-02T22:34:06.136Z,4.94
2023-04-02T22:36:33.620Z,4.88
2023-04-02T22:39:01.766Z,4.88
2023-04-02T22:41:29.657Z,4.94
2023-04-02T22:43:56.879Z,4.88
2023-04-02T22:46:25.951Z,4.75
2023-04-02T22:48:53.102Z,4.81
2023-04-02T22:51:21.836Z,4.69
2023-04-02T22:53:50.497Z,4.69
2023-04-02T22:56:20.048Z,4.69
2023-04-02T22:58:46.753Z,4.69
2023-04-02T23:01:15.762Z,4.56
2023-04-02T23:03:42.759Z,4.56
2023-04-02T23:06:18.243Z,4.56
2023-04-02T23:08:45.991Z,4.50
2023-04-02T23:11:16.403Z,4.44
2023-04-02T23:13:44.242Z,4.50
2023-04-02T23:16:13.443Z,4.44
2023-04-02T23:18:41.183Z,4.44
2023-04-02T23:21:08.912Z,4.38
2023-04-02T23:23:36.594Z,4.31
2023-04-02T23:26:13.341Z,4.25
2023-04-02T23:28:40.841Z,4.25
2023-04-02T23:31:12.962Z,4.13
2023-04-02T23:33:39.852Z,4.13
2023-04-02T23:36:20.524Z,4.13
2023-04-02T23:38:47.463Z,4.13
2023-04-02T23:41:15.943Z,4.06
2023-04-02T23:43:43.876Z,4.06
2023-04-02T23:46:10.634Z,4.00
2023-04-02T23:48:37.446Z,4.06
2023-04-02T23:51:04.588Z,4.00
2023-04-02T23:53:31.474Z,3.94
2023-04-02T23:55:58.049Z,3.88
2023-04-02T23:58:24.848Z,3.88
